createdAt,value
2023-02-23T00:01:40.242Z,97.50
2023-02-23T00:04:08.754Z,97.50
2023-02-23T00:06:36.332Z,97.50
2023-02-23T00:09:07.604Z,97.50
2023-02-23T00:11:34.353Z,97.40
2023-02-23T00:14:01.455Z,97.50
2023-02-23T00:16:28.302Z,97.80
2023-02-23T00:18:56.930Z,97.50
2023-02-23T00:21:25.607Z,97.50
2023-02-23T00:23:53.749Z,97.50
2023-02-23T00:26:21.808Z,97.40
2023-02-23T00:28:49.381Z,97.50
2023-02-23T00:31:16.490Z,97.40
2023-02-23T00:33:43.450Z,97.50
2023-02-23T00:36:11.626Z,97.40
2023-02-23T00:38:40.000Z,97.40
2023-02-23T00:41:07.777Z,97.40
2023-02-23T00:43:35.833Z,97.30
2023-02-23T00:46:05.653Z,97.30
2023-02-23T00:48:33.155Z,97.30
2023-02-23T00:51:04.296Z,97.30
2023-02-23T00:53:31.941Z,97.30
2023-02-23T00:55:58.837Z,97.30
2023-02-23T00:58:26.568Z,97.20
2023-02-23T01:00:53.694Z,97.20
2023-02-23T01:03:20.535Z,97.20
2023-02-23T01:05:50.144Z,97.20
2023-02-23T01:08:17.625Z,97.20
2023-02-23T01:10:46.851Z,97.20
2023-02-23T01:13:13.672Z,97.20
2023-02-23T01:15:44.680Z,97.20
2023-02-23T01:18:11.582Z,97.20
2023-02-23T01:20:42.460Z,97.20
2023-02-23T01:23:10.807Z,97.20
2023-02-23T01:25:38.439Z,97.20
2023-02-23T01:28:05.476Z,97.20
2023-02-23T01:30:32.488Z,97.20
2023-02-23T01:33:00.944Z,97.30
2023-02-23T01:35:27.800Z,97.20
2023-02-23T01:37:54.565Z,97.20
2023-02-23T01:40:29.295Z,97.20
2023-02-23T01:43:00.856Z,97.20
2023-02-23T01:45:39.274Z,97.20
2023-02-23T01:48:17.468Z,97.20
2023-02-23T01:50:53.371Z,97.20
2023-02-23T01:53:23.642Z,97.30
2023-02-23T01:56:04.027Z,97.30
2023-02-23T01:58:31.358Z,97.30
2023-02-23T02:01:02.553Z,97.20
2023-02-23T02:03:35.280Z,97.30
2023-02-23T02:06:03.483Z,97.30
2023-02-23T02:08:31.526Z,97.20
2023-02-23T02:10:58.456Z,97.20
2023-02-23T02:13:26.723Z,97.30
2023-02-23T02:15:53.860Z,97.30
2023-02-23T02:18:25.954Z,97.30
2023-02-23T02:21:01.549Z,97.30
2023-02-23T02:23:40.412Z,97.20
2023-02-23T02:26:27.423Z,97.20
2023-02-23T02:29:13.269Z,97.20
2023-02-23T02:32:01.174Z,97.20
2023-02-23T02:34:42.737Z,97.20
2023-02-23T02:37:18.637Z,97.30
2023-02-23T02:39:53.674Z,97.30
2023-02-23T02:42:27.004Z,97.30
2023-02-23T02:45:12.201Z,97.20
2023-02-23T02:47:43.034Z,97.20
2023-02-23T02:50:21.344Z,97.20
2023-02-23T02:52:51.716Z,97.30
2023-02-23T02:55:27.077Z,97.30
2023-02-23T02:57:56.695Z,97.30
2023-02-23T03:00:50.958Z,97.30
2023-02-23T03:03:48.386Z,97.40
2023-02-23T03:06:33.939Z,97.40
2023-02-23T03:09:25.532Z,97.30
2023-02-23T03:12:25.872Z,97.30
2023-02-23T03:15:20.171Z,97.30
2023-02-23T03:18:06.971Z,97.30
2023-02-23T03:20:52.086Z,97.20
2023-02-23T03:23:37.313Z,97.30
2023-02-23T03:26:25.605Z,97.30
2023-02-23T03:29:29.491Z,97.30
2023-02-23T03:32:32.802Z,97.30
2023-02-23T03:35:26.316Z,97.30
2023-02-23T03:38:34.096Z,97.20
2023-02-23T03:41:20.587Z,97.30
2023-02-23T03:44:11.488Z,97.30
2023-02-23T03:46:58.254Z,97.30
2023-02-23T03:49:44.916Z,97.30
2023-02-23T03:52:33.529Z,97.30
2023-02-23T03:55:21.274Z,97.30
2023-02-23T03:58:08.833Z,97.30
2023-02-23T04:00:57.425Z,97.40
2023-02-23T04:03:44.473Z,97.30
2023-02-23T04:06:32.452Z,97.30
2023-02-23T04:09:20.030Z,97.40
2023-02-23T04:12:11.185Z,97.40
2023-02-23T04:14:59.514Z,97.30
2023-02-23T04:17:28.604Z,97.30
2023-02-23T04:19:55.688Z,97.30
2023-02-23T04:22:23.311Z,97.30
2023-02-23T04:24:50.877Z,97.30
2023-02-23T04:27:17.845Z,97.30
2023-02-23T04:29:45.149Z,97.30
2023-02-23T04:32:16.321Z,97.30
2023-02-23T04:34:43.727Z,97.30
2023-02-23T04:37:10.893Z,97.30
2023-02-23T04:39:37.696Z,97.30
2023-02-23T04:42:04.714Z,97.20
2023-02-23T04:44:31.557Z,97.30
2023-02-23T04:46:58.354Z,97.30
2023-02-23T04:49:25.153Z,97.30
2023-02-23T04:51:52.017Z,97.30
2023-02-23T04:54:18.773Z,97.30
2023-02-23T04:56:45.530Z,97.30
2023-02-23T04:59:12.514Z,97.30
2023-02-23T05:01:39.584Z,97.30
2023-02-23T05:04:06.335Z,97.40
2023-02-23T05:06:33.144Z,97.30
2023-02-23T05:08:59.870Z,97.40
2023-02-23T05:11:27.843Z,97.30
2023-02-23T05:13:54.777Z,97.40
2023-02-23T05:16:21.646Z,97.40
2023-02-23T05:18:48.502Z,97.40
2023-02-23T05:21:15.363Z,97.40
2023-02-23T05:23:42.212Z,97.30
2023-02-23T05:26:09.957Z,97.60
2023-02-23T05:28:37.628Z,97.30
2023-02-23T05:31:05.460Z,97.40
2023-02-23T05:33:33.229Z,97.30
2023-02-23T05:36:00.480Z,97.30
2023-02-23T05:38:27.415Z,97.30
2023-02-23T05:40:54.175Z,97.30
2023-02-23T05:43:21.391Z,97.40
2023-02-23T05:45:48.098Z,97.30
2023-02-23T05:48:14.850Z,97.40
2023-02-23T05:50:41.630Z,97.40
2023-02-23T05:53:08.414Z,97.30
2023-02-23T05:55:36.106Z,97.30
2023-02-23T05:58:03.033Z,97.40
2023-02-23T06:00:29.778Z,97.30
2023-02-23T06:02:56.711Z,97.30
2023-02-23T06:05:23.608Z,97.30
2023-02-23T06:07:50.360Z,97.30
2023-02-23T06:10:17.320Z,97.30
2023-02-23T06:12:44.952Z,97.50
2023-02-23T06:15:11.904Z,97.30
2023-02-23T06:17:38.680Z,97.40
2023-02-23T06:20:07.266Z,97.40
2023-02-23T06:22:34.133Z,97.30
2023-02-23T06:25:04.688Z,97.60
2023-02-23T06:27:31.501Z,97.40
2023-02-23T06:29:58.369Z,97.40
2023-02-23T06:32:27.049Z,97.40
2023-02-23T06:34:53.920Z,97.40
2023-02-23T06:37:20.627Z,97.40
2023-02-23T06:39:47.405Z,97.40
2023-02-23T06:42:15.461Z,97.40
2023-02-23T06:44:42.231Z,97.30
2023-02-23T06:47:09.116Z,97.30
2023-02-23T06:49:37.200Z,97.30
2023-02-23T06:52:04.013Z,97.30
2023-02-23T06:54:30.736Z,97.30
2023-02-23T06:56:57.503Z,97.30
2023-02-23T06:59:24.400Z,97.30
2023-02-23T07:01:51.240Z,97.40
2023-02-23T07:04:18.123Z,97.40
2023-02-23T07:06:44.938Z,97.40
2023-02-23T07:09:11.685Z,97.40
2023-02-23T07:11:39.527Z,97.40
2023-02-23T07:14:07.709Z,97.50
2023-02-23T07:16:38.711Z,97.50
2023-02-23T07:19:06.113Z,97.50
2023-02-23T07:21:33.379Z,97.50
2023-02-23T07:24:00.837Z,97.40
2023-02-23T07:26:27.612Z,97.40
2023-02-23T07:28:54.379Z,97.30
2023-02-23T07:31:21.435Z,97.40
2023-02-23T07:33:48.385Z,97.40
2023-02-23T07:36:15.153Z,97.40
2023-02-23T07:38:41.914Z,97.40
2023-02-23T07:41:08.787Z,97.40
2023-02-23T07:43:35.525Z,97.40
2023-02-23T07:46:02.332Z,97.40
2023-02-23T07:48:29.229Z,97.40
2023-02-23T07:50:55.963Z,97.40
2023-02-23T07:53:23.428Z,97.40
2023-02-23T07:55:59.608Z,97.40
2023-02-23T07:58:26.633Z,97.40
2023-02-23T08:00:54.096Z,97.40
2023-02-23T08:03:21.055Z,97.40
2023-02-23T08:05:47.801Z,97.50
2023-02-23T08:08:14.580Z,97.50
2023-02-23T08:10:41.454Z,97.50
2023-02-23T08:13:08.216Z,97.50
2023-02-23T08:15:34.946Z,97.50
2023-02-23T08:18:01.757Z,97.50
2023-02-23T08:20:28.507Z,97.50
2023-02-23T08:22:55.301Z,97.50
2023-02-23T08:25:22.139Z,97.50
2023-02-23T08:27:52.019Z,97.50
2023-02-23T08:30:19.947Z,97.50
2023-02-23T08:32:46.847Z,97.50
2023-02-23T08:35:13.939Z,97.50
2023-02-23T08:37:41.974Z,97.60
2023-02-23T08:40:09.432Z,97.60
2023-02-23T08:42:36.191Z,97.70
2023-02-23T08:45:02.945Z,97.60
2023-02-23T08:47:30.117Z,97.70
2023-02-23T08:49:56.856Z,97.70
2023-02-23T08:52:24.102Z,97.70
2023-02-23T08:54:50.935Z,97.70
2023-02-23T08:57:18.318Z,97.70
2023-02-23T08:59:45.163Z,97.70
2023-02-23T09:02:13.503Z,97.80
2023-02-23T09:04:42.111Z,97.90
2023-02-23T09:07:09.775Z,97.80
2023-02-23T09:09:36.554Z,97.80
2023-02-23T09:12:03.345Z,97.80
2023-02-23T09:14:30.283Z,97.80
2023-02-23T09:16:57.074Z,97.80
2023-02-23T09:19:23.907Z,97.80
2023-02-23T09:21:50.631Z,97.90
2023-02-23T09:24:18.757Z,97.90
2023-02-23T09:26:45.990Z,97.90
2023-02-23T09:29:12.884Z,97.90
2023-02-23T09:31:39.756Z,97.90
2023-02-23T09:34:09.416Z,97.90
2023-02-23T09:36:36.172Z,98.00
2023-02-23T09:39:03.020Z,98.00
2023-02-23T09:41:48.525Z,98.00
2023-02-23T09:44:18.514Z,98.00
2023-02-23T09:46:58.283Z,98.00
2023-02-23T09:49:28.302Z,98.00
2023-02-23T09:51:58.958Z,98.00
2023-02-23T09:54:29.617Z,98.00
2023-02-23T09:56:58.409Z,98.00
2023-02-23T09:59:25.797Z,98.10
2023-02-23T10:01:57.835Z,98.10
2023-02-23T10:04:32.564Z,98.10
2023-02-23T10:07:02.826Z,98.10
2023-02-23T10:09:38.646Z,98.10
2023-02-23T10:12:14.193Z,98.10
2023-02-23T10:14:59.743Z,98.10
2023-02-23T10:17:35.270Z,98.10
2023-02-23T10:20:18.354Z,98.10
2023-02-23T10:22:45.884Z,98.10
2023-02-23T10:25:14.773Z,98.10
2023-02-23T10:27:43.372Z,98.10
2023-02-23T10:30:16.982Z,98.10
2023-02-23T10:32:49.764Z,98.10
2023-02-23T10:35:18.298Z,98.10
2023-02-23T10:37:46.040Z,98.10
2023-02-23T10:40:24.358Z,98.10
2023-02-23T10:42:52.307Z,98.10
2023-02-23T10:45:24.556Z,98.10
2023-02-23T10:47:54.530Z,98.10
2023-02-23T10:50:27.516Z,98.10
2023-02-23T10:53:04.615Z,98.10
2023-02-23T10:55:32.298Z,98.20
2023-02-23T10:58:03.369Z,98.10
2023-02-23T11:00:33.130Z,98.10
2023-02-23T11:03:01.335Z,98.20
2023-02-23T11:05:28.699Z,98.10
2023-02-23T11:08:10.665Z,98.20
2023-02-23T11:10:37.537Z,98.20
2023-02-23T11:13:04.359Z,98.20
2023-02-23T11:15:49.259Z,98.20
2023-02-23T11:18:22.613Z,98.40
2023-02-23T11:20:49.907Z,98.20
2023-02-23T11:23:24.478Z,98.20
2023-02-23T11:25:52.912Z,98.20
2023-02-23T11:28:31.921Z,98.30
2023-02-23T11:31:02.926Z,98.20
2023-02-23T11:33:35.991Z,98.30
2023-02-23T11:36:21.350Z,98.20
2023-02-23T11:38:56.409Z,98.30
2023-02-23T11:41:24.141Z,98.20
2023-02-23T11:44:02.850Z,98.30
2023-02-23T11:46:31.617Z,98.30
2023-02-23T11:49:21.770Z,98.30
2023-02-23T11:51:50.062Z,98.30
2023-02-23T11:54:22.313Z,98.30
2023-02-23T11:56:55.152Z,98.30
2023-02-23T11:59:27.386Z,98.30
2023-02-23T12:01:55.248Z,98.30
2023-02-23T12:04:31.117Z,98.30
2023-02-23T12:07:18.188Z,98.30
2023-02-23T12:09:46.037Z,98.20
2023-02-23T12:12:18.360Z,98.20
2023-02-23T12:15:00.226Z,98.30
2023-02-23T12:17:28.088Z,98.30
2023-02-23T12:19:57.962Z,98.30
2023-02-23T12:22:29.580Z,98.30
2023-02-23T12:25:05.072Z,98.50
2023-02-23T12:27:38.201Z,98.30
2023-02-23T12:30:12.203Z,98.30
2023-02-23T12:32:39.088Z,98.30
2023-02-23T12:35:18.169Z,98.40
2023-02-23T12:37:50.909Z,98.40
2023-02-23T12:40:20.570Z,98.40
2023-02-23T12:42:47.800Z,98.40
2023-02-23T12:45:31.124Z,98.30
2023-02-23T12:47:57.812Z,98.40
2023-02-23T12:50:30.487Z,98.40
2023-02-23T12:53:17.300Z,98.40
2023-02-23T12:55:47.197Z,98.40
2023-02-23T12:58:45.456Z,98.40
2023-02-23T13:01:32.477Z,98.40
2023-02-23T13:04:18.126Z,98.40
2023-02-23T13:06:44.878Z,98.40
2023-02-23T13:09:17.855Z,98.30
2023-02-23T13:11:49.716Z,98.40
2023-02-23T13:14:16.481Z,98.40
2023-02-23T13:16:45.883Z,98.40
2023-02-23T13:19:12.774Z,98.40
2023-02-23T13:21:42.578Z,98.40
2023-02-23T13:24:21.722Z,98.50
2023-02-23T13:26:58.698Z,98.50
2023-02-23T13:29:34.608Z,98.50
2023-02-23T13:32:02.901Z,98.50
2023-02-23T13:34:48.746Z,98.40
2023-02-23T13:37:17.721Z,98.50
2023-02-23T13:39:47.872Z,98.40
2023-02-23T13:42:25.961Z,98.50
2023-02-23T13:44:52.687Z,98.40
2023-02-23T13:47:39.865Z,98.40
2023-02-23T13:50:25.150Z,98.50
2023-02-23T13:52:55.866Z,98.40
2023-02-23T13:55:25.587Z,98.50
2023-02-23T13:57:53.527Z,98.50
2023-02-23T14:00:21.770Z,98.50
2023-02-23T14:02:48.950Z,98.50
2023-02-23T14:05:18.725Z,98.50
2023-02-23T14:07:48.197Z,98.40
2023-02-23T14:10:20.281Z,98.50
2023-02-23T14:13:06.024Z,98.50
2023-02-23T14:15:37.832Z,98.40
2023-02-23T14:18:25.444Z,98.50
2023-02-23T14:21:05.077Z,98.50
2023-02-23T14:23:36.352Z,98.50
2023-02-23T14:26:15.794Z,98.40
2023-02-23T14:28:44.195Z,98.40
2023-02-23T14:31:10.966Z,98.50
2023-02-23T14:33:48.656Z,98.40
2023-02-23T14:36:21.423Z,98.40
2023-02-23T14:38:57.492Z,98.40
2023-02-23T14:41:25.210Z,98.40
2023-02-23T14:43:59.862Z,98.40
2023-02-23T14:46:27.269Z,98.40
2023-02-23T14:49:01.994Z,98.50
2023-02-23T14:51:32.295Z,98.40
2023-02-23T14:54:00.010Z,98.40
2023-02-23T14:56:42.256Z,98.40
2023-02-23T14:59:15.275Z,98.40
2023-02-23T15:01:42.207Z,98.50
2023-02-23T15:04:14.088Z,98.40
2023-02-23T15:06:47.064Z,98.40
2023-02-23T15:09:18.484Z,98.40
2023-02-23T15:11:48.698Z,98.50
2023-02-23T15:14:26.819Z,98.40
2023-02-23T15:16:55.607Z,98.50
2023-02-23T15:19:24.223Z,98.50
2023-02-23T15:21:52.837Z,98.50
2023-02-23T15:24:24.582Z,98.50
2023-02-23T15:26:51.721Z,98.50
2023-02-23T15:29:19.543Z,98.50
2023-02-23T15:31:52.276Z,98.50
2023-02-23T15:34:20.801Z,98.50
2023-02-23T15:36:49.157Z,98.40
2023-02-23T15:39:19.570Z,98.50
2023-02-23T15:41:48.391Z,98.50
2023-02-23T15:44:27.456Z,98.50
2023-02-23T15:46:58.014Z,98.40
2023-02-23T15:49:30.092Z,98.50
2023-02-23T15:52:02.345Z,98.50
2023-02-23T15:54:32.193Z,98.50
2023-02-23T15:57:03.379Z,98.50
2023-02-23T15:59:39.406Z,98.50
2023-02-23T16:02:14.826Z,98.40
2023-02-23T16:04:44.599Z,98.50
2023-02-23T16:07:25.146Z,98.50
2023-02-23T16:09:56.163Z,98.50
2023-02-23T16:12:24.815Z,98.50
2023-02-23T16:14:54.785Z,98.50
2023-02-23T16:17:26.083Z,98.50
2023-02-23T16:19:54.921Z,98.40
2023-02-23T16:22:24.791Z,98.50
2023-02-23T16:25:05.433Z,98.50
2023-02-23T16:27:32.433Z,98.50
2023-02-23T16:30:00.615Z,98.50
2023-02-23T16:32:37.826Z,98.50
2023-02-23T16:35:18.475Z,98.50
2023-02-23T16:38:04.092Z,98.50
2023-02-23T16:40:30.877Z,98.50
2023-02-23T16:42:59.601Z,98.50
2023-02-23T16:45:27.399Z,98.60
2023-02-23T16:47:54.197Z,98.60
2023-02-23T16:50:22.513Z,98.50
2023-02-23T16:52:53.891Z,98.50
2023-02-23T16:55:27.938Z,98.50
2023-02-23T16:57:56.702Z,98.50
2023-02-23T17:00:25.280Z,98.50
2023-02-23T17:02:52.146Z,98.50
2023-02-23T17:05:21.629Z,98.50
2023-02-23T17:07:49.197Z,98.50
2023-02-23T17:10:24.805Z,98.50
2023-02-23T17:12:58.853Z,98.50
2023-02-23T17:15:29.317Z,98.50
2023-02-23T17:17:56.905Z,98.70
2023-02-23T17:20:26.068Z,98.60
2023-02-23T17:22:53.996Z,98.60
2023-02-23T17:25:23.095Z,98.60
2023-02-23T17:27:51.113Z,98.70
2023-02-23T17:30:17.965Z,98.70
2023-02-23T17:32:44.807Z,98.60
2023-02-23T17:35:12.604Z,98.60
2023-02-23T17:37:39.788Z,98.50
2023-02-23T17:40:09.800Z,98.60
2023-02-23T17:42:36.571Z,98.50
2023-02-23T17:45:05.777Z,98.60
2023-02-23T17:47:33.090Z,98.60
2023-02-23T17:50:00.589Z,98.60
2023-02-23T17:52:28.262Z,98.50
2023-02-23T17:54:55.391Z,98.60
2023-02-23T17:57:23.012Z,98.60
2023-02-23T17:59:50.593Z,98.50
2023-02-23T18:02:19.938Z,98.50
2023-02-23T18:04:50.480Z,98.90
2023-02-23T18:07:20.929Z,98.60
2023-02-23T18:09:50.128Z,98.60
2023-02-23T18:12:18.271Z,98.50
2023-02-23T18:14:45.717Z,98.60
2023-02-23T18:17:12.679Z,98.60
2023-02-23T18:19:39.577Z,98.50
2023-02-23T18:22:06.362Z,98.50
2023-02-23T18:24:33.109Z,98.50
2023-02-23T18:27:03.182Z,98.50
2023-02-23T18:29:32.044Z,98.50
2023-02-23T18:31:59.964Z,98.60
2023-02-23T18:34:28.765Z,98.50
2023-02-23T18:36:56.462Z,98.60
2023-02-23T18:39:23.419Z,98.50
2023-02-23T18:41:50.304Z,98.50
2023-02-23T18:44:17.586Z,98.80
2023-02-23T18:46:46.420Z,98.50
2023-02-23T18:49:24.022Z,98.60
2023-02-23T18:51:50.834Z,98.60
2023-02-23T18:54:18.639Z,98.60
2023-02-23T18:56:46.629Z,98.60
2023-02-23T18:59:13.823Z,98.60
2023-02-23T19:01:42.568Z,98.60
2023-02-23T19:04:10.702Z,98.60
2023-02-23T19:06:40.305Z,98.60
2023-02-23T19:09:09.749Z,98.60
2023-02-23T19:11:37.576Z,98.60
2023-02-23T19:14:08.794Z,98.60
2023-02-23T19:16:36.356Z,98.60
2023-02-23T19:19:04.390Z,98.60
2023-02-23T19:21:31.777Z,98.60
2023-02-23T19:23:59.457Z,98.60
2023-02-23T19:26:26.897Z,98.60
2023-02-23T19:28:53.738Z,98.60
2023-02-23T19:31:21.490Z,98.60
2023-02-23T19:33:49.706Z,98.60
2023-02-23T19:36:18.638Z,98.80
2023-02-23T19:38:45.711Z,98.60
2023-02-23T19:41:14.130Z,98.60
2023-02-23T19:43:40.984Z,98.60
2023-02-23T19:46:09.108Z,98.60
2023-02-23T19:48:35.997Z,98.60
2023-02-23T19:51:03.130Z,98.60
2023-02-23T19:53:30.040Z,98.60
2023-02-23T19:56:00.379Z,98.60
2023-02-23T19:58:27.527Z,98.60
2023-02-23T20:00:57.437Z,98.60
2023-02-23T20:03:28.315Z,98.60
2023-02-23T20:05:56.150Z,98.60
2023-02-23T20:08:23.860Z,98.60
2023-02-23T20:10:51.015Z,98.60
2023-02-23T20:13:18.404Z,98.60
2023-02-23T20:15:46.284Z,98.60
2023-02-23T20:18:13.719Z,98.60
2023-02-23T20:20:40.956Z,98.60
2023-02-23T20:23:08.823Z,98.60
2023-02-23T20:25:36.307Z,98.90
2023-02-23T20:28:03.246Z,98.60
2023-02-23T20:30:30.054Z,98.60
2023-02-23T20:32:57.509Z,98.60
2023-02-23T20:35:26.308Z,98.60
2023-02-23T20:37:53.600Z,98.60
2023-02-23T20:40:23.043Z,98.60
2023-02-23T20:42:50.866Z,98.60
2023-02-23T20:45:19.292Z,98.60
2023-02-23T20:47:46.474Z,98.60
2023-02-23T20:50:14.031Z,98.60
2023-02-23T20:52:41.472Z,98.60
2023-02-23T20:55:09.353Z,98.60
2023-02-23T20:57:36.177Z,98.60
2023-02-23T21:00:14.438Z,98.60
2023-02-23T21:02:41.560Z,98.60
2023-02-23T21:05:12.411Z,98.60
2023-02-23T21:07:39.735Z,98.60
2023-02-23T21:10:08.405Z,98.60
2023-02-23T21:12:35.574Z,98.60
2023-02-23T21:15:04.738Z,98.60
2023-02-23T21:17:31.592Z,98.60
2023-02-23T21:19:58.342Z,98.60
2023-02-23T21:22:25.195Z,98.60
2023-02-23T21:24:52.006Z,98.50
2023-02-23T21:27:18.813Z,98.50
2023-02-23T21:29:46.012Z,98.60
2023-02-23T21:32:17.010Z,98.60
2023-02-23T21:34:43.936Z,98.60
2023-02-23T21:37:10.929Z,98.60
2023-02-23T21:39:38.153Z,98.50
2023-02-23T21:42:05.978Z,98.60
2023-02-23T21:44:33.206Z,98.60
2023-02-23T21:47:00.658Z,98.60
2023-02-23T21:49:27.404Z,98.60
2023-02-23T21:51:55.280Z,98.60
2023-02-23T21:54:23.657Z,98.60
2023-02-23T21:56:50.412Z,98.60
2023-02-23T21:59:17.271Z,98.60
2023-02-23T22:01:44.064Z,98.50
2023-02-23T22:04:13.225Z,98.60
2023-02-23T22:06:41.584Z,98.50
2023-02-23T22:09:11.010Z,98.50
2023-02-23T22:11:38.672Z,98.50
2023-02-23T22:14:06.812Z,98.50
2023-02-23T22:16:35.786Z,98.40
2023-02-23T22:19:04.300Z,98.40
2023-02-23T22:21:32.145Z,98.50
2023-02-23T22:23:59.053Z,98.40
2023-02-23T22:26:25.783Z,98.50
2023-02-23T22:28:52.616Z,98.40
2023-02-23T22:31:19.917Z,98.40
2023-02-23T22:33:46.951Z,98.40
2023-02-23T22:36:14.833Z,98.40
2023-02-23T22:38:41.839Z,98.40
2023-02-23T22:41:11.755Z,98.50
2023-02-23T22:43:39.147Z,98.50
2023-02-23T22:46:07.661Z,98.40
2023-02-23T22:48:34.890Z,98.40
2023-02-23T22:51:01.818Z,98.40
2023-02-23T22:53:28.922Z,98.40
2023-02-23T22:55:56.724Z,98.40
2023-02-23T22:58:24.706Z,98.40
2023-02-23T23:01:04.853Z,98.40
2023-02-23T23:03:39.929Z,98.40
2023-02-23T23:06:08.943Z,98.40
2023-02-23T23:08:37.273Z,98.40
2023-02-23T23:11:14.563Z,98.40
2023-02-23T23:13:45.528Z,98.30
2023-02-23T23:16:25.558Z,98.30
2023-02-23T23:19:02.619Z,98.30
2023-02-23T23:21:30.636Z,98.30
2023-02-23T23:23:58.396Z,98.30
2023-02-23T23:26:26.368Z,98.20
2023-02-23T23:28:55.095Z,98.30
2023-02-23T23:31:28.171Z,98.30
2023-02-23T23:33:56.261Z,98.20
2023-02-23T23:36:24.719Z,98.30
2023-02-23T23:38:52.262Z,98.20
2023-02-23T23:41:24.615Z,98.20
2023-02-23T23:43:59.250Z,98.30
2023-02-23T23:46:27.930Z,98.20
2023-02-23T23:48:54.763Z,98.20
2023-02-23T23:51:27.493Z,98.20
2023-02-23T23:53:54.954Z,98.20
2023-02-23T23:56:21.794Z,98.20
2023-02-23T23:58:49.121Z,98.20
